sensor_id;sensor_type;location;lat;lon;timestamp;pressure;altitude;pressure_sealevel;temperature;humidity
24962;BME280;12992;50.884;13.668;2023-02-23T00:01:39;96901.88;;;8.17;100.00
24962;BME280;12992;50.884;13.668;2023-02-23T00:04:05;96900.25;;;8.16;100.00
24962;BME280;12992;50.884;13.668;2023-02-23T00:06:32;96893.50;;;8.18;100.00
24962;BME280;12992;50.884;13.668;2023-02-23T00:08:59;96896.97;;;8.14;100.00
24962;BME280;12992;50.884;13.668;2023-02-23T00:11:26;96890.47;;;8.15;100.00
24962;BME280;12992;50.884;13.668;2023-02-23T00:13:52;96895.09;;;8.14;100.00
24962;BME280;12992;50.884;13.668;2023-02-23T00:16:21;96894.00;;;8.15;100.00
24962;BME280;12992;50.884;13.668;2023-02-23T00:18:51;96895.09;;;8.14;100.00
24962;BME280;12992;50.884;13.668;2023-02-23T00:23:55;96882.00;;;8.11;100.00
24962;BME280;12992;50.884;13.668;2023-02-23T00:26:23;96882.00;;;8.11;100.00
24962;BME280;12992;50.884;13.668;2023-02-23T00:28:49;96889.31;;;8.11;100.00
24962;BME280;12992;50.884;13.668;2023-02-23T00:31:17;96877.41;;;8.12;100.00
24962;BME280;12992;50.884;13.668;2023-02-23T00:33:43;96875.75;;;8.11;100.00
24962;BME280;12992;50.884;13.668;2023-02-23T00:36:12;96876.84;;;8.10;100.00
24962;BME280;12992;50.884;13.668;2023-02-23T00:38:38;96871.66;;;8.08;100.00
24962;BME280;12992;50.884;13.668;2023-02-23T00:41:09;96875.72;;;8.06;100.00
24962;BME280;12992;50.884;13.668;2023-02-23T00:43:37;96877.34;;;8.07;100.00
24962;BME280;12992;50.884;13.668;2023-02-23T00:46:03;96882.53;;;8.08;100.00
24962;BME280;12992;50.884;13.668;2023-02-23T00:48:33;96886.94;;;8.14;100.00
24962;BME280;12992;50.884;13.668;2023-02-23T00:51:03;96887.50;;;8.16;100.00
24962;BME280;12992;50.884;13.668;2023-02-23T00:53:30;96892.94;;;8.16;100.00
24962;BME280;12992;50.884;13.668;2023-02-23T00:55:55;96888.59;;;8.15;100.00
24962;BME280;12992;50.884;13.668;2023-02-23T00:58:22;96881.19;;;8.11;100.00
24962;BME280;12992;50.884;13.668;2023-02-23T01:00:48;96885.31;;;8.13;100.00
24962;BME280;12992;50.884;13.668;2023-02-23T01:03:13;96892.38;;;8.14;100.00
24962;BME280;12992;50.884;13.668;2023-02-23T01:05:38;96894.31;;;8.19;100.00
24962;BME280;12992;50.884;13.668;2023-02-23T01:08:04;96887.50;;;8.16;100.00
24962;BME280;12992;50.884;13.668;2023-02-23T01:10:34;96885.63;;;8.17;100.00
24962;BME280;12992;50.884;13.668;2023-02-23T01:13:03;96876.91;;;8.15;100.00
24962;BME280;12992;50.884;13.668;2023-02-23T01:15:28;96883.47;;;8.19;100.00
24962;BME280;12992;50.884;13.668;2023-02-23T01:17:54;96887.56;;;8.21;100.00
24962;BME280;12992;50.884;13.668;2023-02-23T01:20:19;96894.13;;;8.26;100.00
24962;BME280;12992;50.884;13.668;2023-02-23T01:22:47;96883.28;;;8.26;100.00
24962;BME280;12992;50.884;13.668;2023-02-23T01:25:14;96886.56;;;8.28;100.00
24962;BME280;12992;50.884;13.668;2023-02-23T01:27:41;96891.50;;;8.31;100.00
24962;BME280;12992;50.884;13.668;2023-02-23T01:30:08;96884.53;;;8.35;100.00
24962;BME280;12992;50.884;13.668;2023-02-23T01:32:36;96882.03;;;8.33;100.00
24962;BME280;12992;50.884;13.668;2023-02-23T01:35:07;96892.66;;;8.35;100.00
24962;BME280;12992;50.884;13.668;2023-02-23T01:37:34;96885.56;;;8.34;100.00
24962;BME280;12992;50.884;13.668;2023-02-23T01:40:01;96884.81;;;8.38;100.00
24962;BME280;12992;50.884;13.668;2023-02-23T01:42:30;96883.25;;;8.42;100.00
24962;BME280;12992;50.884;13.668;2023-02-23T01:45:27;96871.59;;;8.42;100.00
24962;BME280;12992;50.884;13.668;2023-02-23T01:47:56;96871.84;;;8.40;100.00
24962;BME280;12992;50.884;13.668;2023-02-23T01:50:25;96875.38;;;8.41;100.00
24962;BME280;12992;50.884;13.668;2023-02-23T01:52:52;96868.31;;;8.40;100.00
24962;BME280;12992;50.884;13.668;2023-02-23T01:55:20;96869.97;;;8.41;100.00
24962;BME280;12992;50.884;13.668;2023-02-23T01:58:08;96870.78;;;8.41;100.00
24962;BME280;12992;50.884;13.668;2023-02-23T02:00:41;96861.88;;;8.46;100.00
24962;BME280;12992;50.884;13.668;2023-02-23T02:03:11;96857.50;;;8.45;100.00
24962;BME280;12992;50.884;13.668;2023-02-23T02:05:38;96865.13;;;8.48;100.00
24962;BME280;12992;50.884;13.668;2023-02-23T02:08:05;96858.66;;;8.49;100.00
24962;BME280;12992;50.884;13.668;2023-02-23T02:10:31;96854.88;;;8.50;100.00
24962;BME280;12992;50.884;13.668;2023-02-23T02:13:09;96845.31;;;8.47;100.00
24962;BME280;12992;50.884;13.668;2023-02-23T02:15:48;96853.28;;;8.54;100.00
24962;BME280;12992;50.884;13.668;2023-02-23T02:18:23;96855.50;;;8.57;100.00
24962;BME280;12992;50.884;13.668;2023-02-23T02:21:01;96847.34;;;8.57;100.00
24962;BME280;12992;50.884;13.668;2023-02-23T02:26:47;96851.94;;;8.57;99.78
24962;BME280;12992;50.884;13.668;2023-02-23T02:29:36;96854.72;;;8.62;99.31
24962;BME280;12992;50.884;13.668;2023-02-23T02:35:34;96849.56;;;8.60;99.29
24962;BME280;12992;50.884;13.668;2023-02-23T02:40:45;96842.53;;;8.64;99.25
24962;BME280;12992;50.884;13.668;2023-02-23T02:46:13;96840.41;;;8.66;99.71
24962;BME280;12992;50.884;13.668;2023-02-23T02:48:55;96845.88;;;8.71;99.04
24962;BME280;12992;50.884;13.668;2023-02-23T02:51:35;96857.59;;;8.77;98.75
24962;BME280;12992;50.884;13.668;2023-02-23T02:54:24;96849.72;;;8.75;99.20
24962;BME280;12992;50.884;13.668;2023-02-23T02:56:52;96844.84;;;8.77;98.67
24962;BME280;12992;50.884;13.668;2023-02-23T02:59:22;96842.63;;;8.74;99.39
24962;BME280;12992;50.884;13.668;2023-02-23T03:02:13;96835.56;;;8.73;99.34
24962;BME280;12992;50.884;13.668;2023-02-23T03:05:01;96838.88;;;8.75;99.32
24962;BME280;12992;50.884;13.668;2023-02-23T03:08:16;96841.88;;;8.79;99.48
24962;BME280;12992;50.884;13.668;2023-02-23T03:11:09;96836.19;;;8.80;99.18
24962;BME280;12992;50.884;13.668;2023-02-23T03:17:05;96832.72;;;8.85;99.22
24962;BME280;12992;50.884;13.668;2023-02-23T03:19:57;96829.91;;;8.75;99.77
24962;BME280;12992;50.884;13.668;2023-02-23T03:22:53;96832.34;;;8.76;99.83
24962;BME280;12992;50.884;13.668;2023-02-23T03:25:50;96830.75;;;8.80;99.54
24962;BME280;12992;50.884;13.668;2023-02-23T03:28:47;96835.69;;;8.84;99.23
24962;BME280;12992;50.884;13.668;2023-02-23T03:35:16;96831.09;;;8.84;99.40
24962;BME280;12992;50.884;13.668;2023-02-23T03:38:33;96837.88;;;8.87;98.95
24962;BME280;12992;50.884;13.668;2023-02-23T03:41:20;96836.81;;;8.88;99.29
24962;BME280;12992;50.884;13.668;2023-02-23T03:44:11;96831.38;;;8.88;99.34
24962;BME280;12992;50.884;13.668;2023-02-23T03:46:57;96831.28;;;8.77;100.00
24962;BME280;12992;50.884;13.668;2023-02-23T03:49:46;96825.50;;;8.69;100.00
24962;BME280;12992;50.884;13.668;2023-02-23T03:52:45;96819.44;;;8.62;100.00
24962;BME280;12992;50.884;13.668;2023-02-23T03:55:34;96835.47;;;8.63;100.00
24962;BME280;12992;50.884;13.668;2023-02-23T03:58:30;96843.66;;;8.68;100.00
24962;BME280;12992;50.884;13.668;2023-02-23T04:01:17;96843.16;;;8.71;100.00
24962;BME280;12992;50.884;13.668;2023-02-23T04:04:03;96853.00;;;8.77;100.00
24962;BME280;12992;50.884;13.668;2023-02-23T04:06:48;96855.75;;;8.83;100.00
24962;BME280;12992;50.884;13.668;2023-02-23T04:09:32;96858.53;;;8.88;100.00
24962;BME280;12992;50.884;13.668;2023-02-23T04:12:22;96864.03;;;8.93;100.00
24962;BME280;12992;50.884;13.668;2023-02-23T04:15:14;96868.94;;;8.96;100.00
24962;BME280;12992;50.884;13.668;2023-02-23T04:17:42;96859.63;;;8.92;100.00
24962;BME280;12992;50.884;13.668;2023-02-23T04:20:08;96854.22;;;8.92;100.00
24962;BME280;12992;50.884;13.668;2023-02-23T04:22:35;96855.06;;;8.92;100.00
24962;BME280;12992;50.884;13.668;2023-02-23T04:25:01;96853.09;;;8.88;100.00
24962;BME280;12992;50.884;13.668;2023-02-23T04:27:26;96844.88;;;8.83;100.00
24962;BME280;12992;50.884;13.668;2023-02-23T04:29:51;96849.00;;;8.85;100.00
24962;BME280;12992;50.884;13.668;2023-02-23T04:32:18;96862.88;;;8.89;100.00
24962;BME280;12992;50.884;13.668;2023-02-23T04:34:45;96856.88;;;8.87;100.00
24962;BME280;12992;50.884;13.668;2023-02-23T04:37:11;96844.31;;;8.80;100.00
24962;BME280;12992;50.884;13.668;2023-02-23T04:39:36;96843.72;;;8.73;100.00
24962;BME280;12992;50.884;13.668;2023-02-23T04:42:02;96829.53;;;8.66;100.00
24962;BME280;12992;50.884;13.668;2023-02-23T04:44:27;96840.41;;;8.66;100.00
24962;BME280;12992;50.884;13.668;2023-02-23T04:46:53;96842.53;;;8.64;100.00
24962;BME280;12992;50.884;13.668;2023-02-23T04:49:18;96832.75;;;8.63;100.00
24962;BME280;12992;50.884;13.668;2023-02-23T04:51:43;96846.38;;;8.68;100.00
24962;BME280;12992;50.884;13.668;2023-02-23T04:54:09;96836.09;;;8.70;100.00
24962;BME280;12992;50.884;13.668;2023-02-23T04:56:34;96835.56;;;8.73;100.00
24962;BME280;12992;50.884;13.668;2023-02-23T04:59:00;96832.63;;;8.75;100.00
24962;BME280;12992;50.884;13.668;2023-02-23T05:01:25;96842.13;;;8.77;100.00
24962;BME280;12992;50.884;13.668;2023-02-23T05:03:51;96848.66;;;8.76;100.00
24962;BME280;12992;50.884;13.668;2023-02-23T05:06:17;96832.81;;;8.68;100.00
24962;BME280;12992;50.884;13.668;2023-02-23T05:08:42;96818.06;;;8.59;100.00
24962;BME280;12992;50.884;13.668;2023-02-23T05:11:09;96822.88;;;8.52;100.00
24962;BME280;12992;50.884;13.668;2023-02-23T05:13:34;96810.38;;;8.51;100.00
24962;BME280;12992;50.884;13.668;2023-02-23T05:16:00;96812.53;;;8.49;100.00
24962;BME280;12992;50.884;13.668;2023-02-23T05:18:26;96801.88;;;8.42;100.00
24962;BME280;12992;50.884;13.668;2023-02-23T05:20:52;96804.84;;;8.41;100.00
24962;BME280;12992;50.884;13.668;2023-02-23T05:23:19;96808.09;;;8.43;100.00
24962;BME280;12992;50.884;13.668;2023-02-23T05:25:44;96805.91;;;8.40;100.00
24962;BME280;12992;50.884;13.668;2023-02-23T05:28:09;96794.06;;;8.29;100.00
24962;BME280;12992;50.884;13.668;2023-02-23T05:30:35;96790.75;;;8.22;100.00
24962;BME280;12992;50.884;13.668;2023-02-23T05:33:01;96794.22;;;8.17;100.00
24962;BME280;12992;50.884;13.668;2023-02-23T05:35:26;96796.63;;;8.14;100.00
24962;BME280;12992;50.884;13.668;2023-02-23T05:37:51;96797.94;;;8.11;100.00
24962;BME280;12992;50.884;13.668;2023-02-23T05:40:17;96794.63;;;8.04;100.00
24962;BME280;12992;50.884;13.668;2023-02-23T05:42:42;96810.88;;;8.04;100.00
24962;BME280;12992;50.884;13.668;2023-02-23T05:45:07;96810.88;;;8.04;100.00
24962;BME280;12992;50.884;13.668;2023-02-23T05:47:33;96810.28;;;8.02;100.00
24962;BME280;12992;50.884;13.668;2023-02-23T05:50:07;96813.25;;;8.01;100.00
24962;BME280;12992;50.884;13.668;2023-02-23T05:52:37;96807.78;;;7.95;100.00
24962;BME280;12992;50.884;13.668;2023-02-23T05:55:06;96820.50;;;7.95;100.00
24962;BME280;12992;50.884;13.668;2023-02-23T05:57:31;96812.88;;;7.92;100.00
24962;BME280;12992;50.884;13.668;2023-02-23T05:59:57;96811.75;;;7.88;100.00
24962;BME280;12992;50.884;13.668;2023-02-23T06:02:22;96822.66;;;7.93;100.00
24962;BME280;12992;50.884;13.668;2023-02-23T06:04:47;96828.63;;;7.95;100.00
24962;BME280;12992;50.884;13.668;2023-02-23T06:07:13;96833.06;;;8.01;100.00
24962;BME280;12992;50.884;13.668;2023-02-23T06:09:38;96838.00;;;8.04;100.00
24962;BME280;12992;50.884;13.668;2023-02-23T06:12:04;96832.25;;;8.01;100.00
24962;BME280;12992;50.884;13.668;2023-02-23T06:14:29;96838.50;;;8.01;100.00
24962;BME280;12992;50.884;13.668;2023-02-23T06:16:54;96843.91;;;8.01;100.00
24962;BME280;12992;50.884;13.668;2023-02-23T06:19:19;96842.84;;;8.02;100.00
24962;BME280;12992;50.884;13.668;2023-02-23T06:21:45;96844.72;;;8.02;100.00
24962;BME280;12992;50.884;13.668;2023-02-23T06:24:10;96851.06;;;8.07;100.00
24962;BME280;12992;50.884;13.668;2023-02-23T06:26:36;96859.22;;;8.12;100.00
24962;BME280;12992;50.884;13.668;2023-02-23T06:29:02;96872.06;;;8.17;100.00
24962;BME280;12992;50.884;13.668;2023-02-23T06:31:27;96875.34;;;8.19;100.00
24962;BME280;12992;50.884;13.668;2023-02-23T06:33:53;96876.22;;;8.24;100.00
24962;BME280;12992;50.884;13.668;2023-02-23T06:36:18;96881.13;;;8.28;100.00
24962;BME280;12992;50.884;13.668;2023-02-23T06:38:44;96883.44;;;8.36;100.00
24962;BME280;12992;50.884;13.668;2023-02-23T06:41:10;96887.91;;;8.47;100.00
24962;BME280;12992;50.884;13.668;2023-02-23T06:43:35;96893.41;;;8.52;100.00
24962;BME280;12992;50.884;13.668;2023-02-23T06:46:01;96892.47;;;8.63;100.00
24962;BME280;12992;50.884;13.668;2023-02-23T06:48:26;96903.69;;;8.72;100.00
24962;BME280;12992;50.884;13.668;2023-02-23T06:50:52;96898.06;;;8.78;100.00
24962;BME280;12992;50.884;13.668;2023-02-23T06:53:17;96900.84;;;8.84;100.00
24962;BME280;12992;50.884;13.668;2023-02-23T06:55:44;96906.41;;;8.94;100.00
24962;BME280;12992;50.884;13.668;2023-02-23T06:58:10;96914.03;;;8.97;100.00
24962;BME280;12992;50.884;13.668;2023-02-23T07:00:35;96907.31;;;9.04;100.00
24962;BME280;12992;50.884;13.668;2023-02-23T07:03:01;96905.97;;;9.07;100.00
24962;BME280;12992;50.884;13.668;2023-02-23T07:05:26;96904.41;;;9.11;100.00
24962;BME280;12992;50.884;13.668;2023-02-23T07:07:52;96916.66;;;9.14;100.00
24962;BME280;12992;50.884;13.668;2023-02-23T07:10:17;96916.94;;;9.17;100.00
24962;BME280;12992;50.884;13.668;2023-02-23T07:12:43;96915.66;;;9.25;100.00
24962;BME280;12992;50.884;13.668;2023-02-23T07:15:09;96922.53;;;9.32;100.00
24962;BME280;12992;50.884;13.668;2023-02-23T07:17:35;96931.31;;;9.45;100.00
24962;BME280;12992;50.884;13.668;2023-02-23T07:20:00;96929.78;;;9.54;100.00
24962;BME280;12992;50.884;13.668;2023-02-23T07:22:26;96933.72;;;9.68;98.65
24962;BME280;12992;50.884;13.668;2023-02-23T07:24:54;96939.22;;;9.78;98.27
24962;BME280;12992;50.884;13.668;2023-02-23T07:27:19;96952.41;;;9.97;98.63
24962;BME280;12992;50.884;13.668;2023-02-23T07:29:45;96954.72;;;10.15;97.08
24962;BME280;12992;50.884;13.668;2023-02-23T07:32:10;96950.25;;;10.31;94.97
24962;BME280;12992;50.884;13.668;2023-02-23T07:34:35;96947.28;;;10.37;93.73
24962;BME280;12992;50.884;13.668;2023-02-23T07:37:02;96931.50;;;10.39;92.23
24962;BME280;12992;50.884;13.668;2023-02-23T07:39:27;96934.28;;;10.44;92.48
24962;BME280;12992;50.884;13.668;2023-02-23T07:41:52;96925.56;;;10.47;91.35
24962;BME280;12992;50.884;13.668;2023-02-23T07:44:18;96938.13;;;10.54;91.92
24962;BME280;12992;50.884;13.668;2023-02-23T07:46:43;96947.16;;;10.64;91.90
24962;BME280;12992;50.884;13.668;2023-02-23T07:49:10;96928.38;;;10.68;90.09
24962;BME280;12992;50.884;13.668;2023-02-23T07:51:37;96930.00;;;10.69;90.62
24962;BME280;12992;50.884;13.668;2023-02-23T07:54:04;96932.22;;;10.72;90.41
24962;BME280;12992;50.884;13.668;2023-02-23T07:56:29;96937.66;;;10.77;90.27
24962;BME280;12992;50.884;13.668;2023-02-23T07:58:54;96937.69;;;10.82;89.34
24962;BME280;12992;50.884;13.668;2023-02-23T08:01:20;96943.19;;;10.92;89.31
24962;BME280;12992;50.884;13.668;2023-02-23T08:03:45;96955.19;;;11.01;89.59
24962;BME280;12992;50.884;13.668;2023-02-23T08:06:14;96971.59;;;11.12;91.57
24962;BME280;12992;50.884;13.668;2023-02-23T08:08:40;96971.34;;;11.13;93.09
24962;BME280;12992;50.884;13.668;2023-02-23T08:11:05;96962.91;;;11.15;93.59
24962;BME280;12992;50.884;13.668;2023-02-23T08:13:31;96957.94;;;11.12;93.54
24962;BME280;12992;50.884;13.668;2023-02-23T08:15:57;96957.72;;;11.13;92.39
24962;BME280;12992;50.884;13.668;2023-02-23T08:18:23;96967.00;;;11.27;91.01
24962;BME280;12992;50.884;13.668;2023-02-23T08:20:49;96975.22;;;11.43;90.46
24962;BME280;12992;50.884;13.668;2023-02-23T08:23:15;96980.69;;;11.53;91.23
24962;BME280;12992;50.884;13.668;2023-02-23T08:25:42;96967.88;;;11.53;88.55
24962;BME280;12992;50.884;13.668;2023-02-23T08:28:07;96970.59;;;11.53;89.28
24962;BME280;12992;50.884;13.668;2023-02-23T08:30:33;96957.50;;;11.55;87.11
24962;BME280;12992;50.884;13.668;2023-02-23T08:32:58;96956.69;;;11.55;89.24
24962;BME280;12992;50.884;13.668;2023-02-23T08:35:26;96957.50;;;11.55;87.32
24962;BME280;12992;50.884;13.668;2023-02-23T08:37:51;96962.69;;;11.62;88.08
24962;BME280;12992;50.884;13.668;2023-02-23T08:40:16;96959.72;;;11.69;87.38
24962;BME280;12992;50.884;13.668;2023-02-23T08:42:43;96973.91;;;11.76;86.56
24962;BME280;12992;50.884;13.668;2023-02-23T08:45:09;96963.00;;;11.76;86.57
24962;BME280;12992;50.884;13.668;2023-02-23T08:47:35;96956.47;;;11.82;86.27
24962;BME280;12992;50.884;13.668;2023-02-23T08:50:01;96972.03;;;11.97;86.14
24962;BME280;12992;50.884;13.668;2023-02-23T08:52:26;96975.59;;;12.12;85.74
24962;BME280;12992;50.884;13.668;2023-02-23T08:54:53;96978.31;;;12.23;85.54
24962;BME280;12992;50.884;13.668;2023-02-23T08:57:19;96990.31;;;12.32;85.58
24962;BME280;12992;50.884;13.668;2023-02-23T08:59:44;96979.91;;;12.39;84.28
24962;BME280;12992;50.884;13.668;2023-02-23T09:02:11;96985.09;;;12.40;85.84
24962;BME280;12992;50.884;13.668;2023-02-23T09:04:37;96979.63;;;12.45;85.05
24962;BME280;12992;50.884;13.668;2023-02-23T09:07:06;96959.19;;;12.38;84.16
24962;BME280;12992;50.884;13.668;2023-02-23T09:09:32;96972.81;;;12.33;86.77
24962;BME280;12992;50.884;13.668;2023-02-23T09:11:58;96965.16;;;12.40;86.47
24962;BME280;12992;50.884;13.668;2023-02-23T09:14:24;96987.78;;;12.66;87.47
24962;BME280;12992;50.884;13.668;2023-02-23T09:16:49;96982.56;;;12.74;84.39
24962;BME280;12992;50.884;13.668;2023-02-23T09:19:15;96979.56;;;12.76;86.35
24962;BME280;12992;50.884;13.668;2023-02-23T09:21:42;97011.16;;;13.08;86.23
24962;BME280;12992;50.884;13.668;2023-02-23T09:24:08;97003.72;;;13.28;82.11
24962;BME280;12992;50.884;13.668;2023-02-23T09:26:33;97011.78;;;13.54;80.52
24962;BME280;12992;50.884;13.668;2023-02-23T09:29:00;97008.34;;;13.77;80.46
24962;BME280;12992;50.884;13.668;2023-02-23T09:31:26;97006.63;;;13.92;80.24
24962;BME280;12992;50.884;13.668;2023-02-23T09:33:52;97030.69;;;14.29;80.88
24962;BME280;12992;50.884;13.668;2023-02-23T09:36:21;97008.44;;;14.40;77.95
24962;BME280;12992;50.884;13.668;2023-02-23T09:38:49;97017.28;;;14.61;78.63
24962;BME280;12992;50.884;13.668;2023-02-23T09:43:58;96991.03;;;14.55;80.57
24962;BME280;12992;50.884;13.668;2023-02-23T09:46:34;96976.25;;;14.22;80.74
24962;BME280;12992;50.884;13.668;2023-02-23T09:49:10;96991.44;;;14.38;82.37
24962;BME280;12992;50.884;13.668;2023-02-23T09:51:40;96974.72;;;14.40;78.50
24962;BME280;12992;50.884;13.668;2023-02-23T09:54:11;96977.41;;;14.50;78.46
24962;BME280;12992;50.884;13.668;2023-02-23T09:56:42;96981.38;;;14.63;78.11
24962;BME280;12992;50.884;13.668;2023-02-23T09:59:13;97017.56;;;15.13;78.24
24962;BME280;12992;50.884;13.668;2023-02-23T10:01:52;96983.47;;;15.19;76.17
24962;BME280;12992;50.884;13.668;2023-02-23T10:04:23;96998.00;;;15.62;73.60
24962;BME280;12992;50.884;13.668;2023-02-23T10:07:38;97004.19;;;15.92;73.62
24962;BME280;12992;50.884;13.668;2023-02-23T10:15:26;97019.47;;;16.82;69.25
24962;BME280;12992;50.884;13.668;2023-02-23T10:24:11;96984.22;;;17.39;68.13
24962;BME280;12992;50.884;13.668;2023-02-23T10:26:24;96971.97;;;17.45;68.77
24962;BME280;12992;50.884;13.668;2023-02-23T10:28:53;96947.75;;;17.33;68.24
24962;BME280;12992;50.884;13.668;2023-02-23T10:33:57;96967.63;;;17.66;68.91
24962;BME280;12992;50.884;13.668;2023-02-23T10:36:36;96972.75;;;17.73;69.00
24962;BME280;12992;50.884;13.668;2023-02-23T10:39:07;96957.25;;;17.63;68.72
24962;BME280;12992;50.884;13.668;2023-02-23T10:41:34;96928.41;;;17.47;67.55
24962;BME280;12992;50.884;13.668;2023-02-23T10:44:00;96963.97;;;18.07;68.15
24962;BME280;12992;50.884;13.668;2023-02-23T10:46:35;96975.13;;;18.47;67.91
24962;BME280;12992;50.884;13.668;2023-02-23T10:49:02;96971.34;;;18.65;65.10
24962;BME280;12992;50.884;13.668;2023-02-23T10:51:29;96940.94;;;18.56;65.79
24962;BME280;12992;50.884;13.668;2023-02-23T10:53:58;96950.44;;;18.73;64.90
24962;BME280;12992;50.884;13.668;2023-02-23T10:56:23;96912.25;;;18.35;65.74
24962;BME280;12992;50.884;13.668;2023-02-23T10:58:51;96908.28;;;18.19;66.76
24962;BME280;12992;50.884;13.668;2023-02-23T11:01:39;96943.22;;;18.63;66.01
24962;BME280;12992;50.884;13.668;2023-02-23T11:04:17;96918.69;;;18.53;67.08
24962;BME280;12992;50.884;13.668;2023-02-23T11:06:46;96928.28;;;18.86;65.37
24962;BME280;12992;50.884;13.668;2023-02-23T11:09:29;96954.09;;;19.39;64.85
24962;BME280;12992;50.884;13.668;2023-02-23T11:14:24;96968.97;;;20.12;63.21
24962;BME280;12992;50.884;13.668;2023-02-23T11:16:49;96971.06;;;20.58;62.67
24962;BME280;12992;50.884;13.668;2023-02-23T11:19:23;96912.69;;;20.25;62.52
24962;BME280;12992;50.884;13.668;2023-02-23T11:21:51;96847.38;;;19.69;61.65
24962;BME280;12992;50.884;13.668;2023-02-23T11:24:31;96829.66;;;19.18;63.07
24962;BME280;12992;50.884;13.668;2023-02-23T11:26:59;96849.59;;;19.06;64.16
24962;BME280;12992;50.884;13.668;2023-02-23T11:29:41;96806.34;;;18.27;65.54
24962;BME280;12992;50.884;13.668;2023-02-23T11:32:12;96833.44;;;18.65;64.50
24962;BME280;12992;50.884;13.668;2023-02-23T11:34:40;96862.44;;;19.11;65.47
24962;BME280;12992;50.884;13.668;2023-02-23T11:42:19;96785.66;;;18.38;65.51
24962;BME280;12992;50.884;13.668;2023-02-23T11:45:01;96785.34;;;18.09;66.48
24962;BME280;12992;50.884;13.668;2023-02-23T11:47:28;96801.53;;;18.42;66.40
24962;BME280;12992;50.884;13.668;2023-02-23T11:49:54;96785.91;;;18.28;65.04
24962;BME280;12992;50.884;13.668;2023-02-23T11:52:23;96774.25;;;18.31;65.58
24962;BME280;12992;50.884;13.668;2023-02-23T11:55:00;96779.91;;;18.26;67.65
24962;BME280;12992;50.884;13.668;2023-02-23T11:57:33;96752.41;;;17.95;66.30
24962;BME280;12992;50.884;13.668;2023-02-23T12:00:21;96742.78;;;17.62;67.86
24962;BME280;12992;50.884;13.668;2023-02-23T12:02:57;96708.97;;;16.94;69.44
24962;BME280;12992;50.884;13.668;2023-02-23T12:05:29;96763.13;;;17.07;71.71
24962;BME280;12992;50.884;13.668;2023-02-23T12:08:00;96790.78;;;17.47;70.07
24962;BME280;12992;50.884;13.668;2023-02-23T12:10:32;96771.88;;;17.54;68.94
24962;BME280;12992;50.884;13.668;2023-02-23T12:15:58;96742.72;;;17.53;67.62
24962;BME280;12992;50.884;13.668;2023-02-23T12:21:48;96740.09;;;17.48;69.32
24962;BME280;12992;50.884;13.668;2023-02-23T12:29:49;96713.59;;;16.85;71.81
24962;BME280;12992;50.884;13.668;2023-02-23T12:32:19;96696.75;;;16.50;73.12
24962;BME280;12992;50.884;13.668;2023-02-23T12:37:34;96723.72;;;16.62;72.97
24962;BME280;12992;50.884;13.668;2023-02-23T12:40:12;96759.81;;;16.96;73.77
24962;BME280;12992;50.884;13.668;2023-02-23T12:42:45;96756.44;;;16.99;75.27
24962;BME280;12992;50.884;13.668;2023-02-23T12:45:20;96752.63;;;17.09;74.06
24962;BME280;12992;50.884;13.668;2023-02-23T12:50:40;96682.19;;;16.86;72.30
24962;BME280;12992;50.884;13.668;2023-02-23T12:53:19;96697.44;;;16.56;73.59
24962;BME280;12992;50.884;13.668;2023-02-23T12:56:05;96699.81;;;16.49;75.92
24962;BME280;12992;50.884;13.668;2023-02-23T12:58:49;96686.78;;;16.40;77.00
24962;BME280;12992;50.884;13.668;2023-02-23T13:04:16;96704.84;;;16.19;77.18
24962;BME280;12992;50.884;13.668;2023-02-23T13:07:00;96640.94;;;15.31;79.88
24962;BME280;12992;50.884;13.668;2023-02-23T13:09:45;96679.66;;;15.43;79.64
24962;BME280;12992;50.884;13.668;2023-02-23T13:14:58;96677.69;;;15.16;80.13
24962;BME280;12992;50.884;13.668;2023-02-23T13:17:40;96696.41;;;15.28;82.06
24962;BME280;12992;50.884;13.668;2023-02-23T13:20:25;96669.69;;;15.20;81.06
24962;BME280;12992;50.884;13.668;2023-02-23T13:25:53;96639.19;;;14.56;83.76
24962;BME280;12992;50.884;13.668;2023-02-23T13:28:38;96671.25;;;14.56;84.09
24962;BME280;12992;50.884;13.668;2023-02-23T13:31:19;96665.38;;;14.43;85.36
24962;BME280;12992;50.884;13.668;2023-02-23T13:33:46;96656.81;;;14.31;85.38
24962;BME280;12992;50.884;13.668;2023-02-23T13:36:13;96655.69;;;14.13;86.05
24962;BME280;12992;50.884;13.668;2023-02-23T13:41:45;96684.53;;;14.06;88.36
24962;BME280;12992;50.884;13.668;2023-02-23T13:44:36;96670.09;;;14.00;89.25
24962;BME280;12992;50.884;13.668;2023-02-23T13:47:24;96656.06;;;13.83;87.93
24962;BME280;12992;50.884;13.668;2023-02-23T13:50:18;96683.72;;;14.05;89.60
24962;BME280;12992;50.884;13.668;2023-02-23T13:52:52;96686.69;;;14.09;88.37
24962;BME280;12992;50.884;13.668;2023-02-23T13:57:51;96671.09;;;13.85;89.36
24962;BME280;12992;50.884;13.668;2023-02-23T14:00:21;96652.19;;;13.65;88.28
24962;BME280;12992;50.884;13.668;2023-02-23T14:02:47;96646.31;;;13.53;88.76
24962;BME280;12992;50.884;13.668;2023-02-23T14:05:19;96666.03;;;13.50;90.17
24962;BME280;12992;50.884;13.668;2023-02-23T14:07:50;96654.22;;;13.30;90.57
24962;BME280;12992;50.884;13.668;2023-02-23T14:10:20;96646.63;;;13.22;92.02
24962;BME280;12992;50.884;13.668;2023-02-23T14:18:00;96677.56;;;13.18;93.64
24962;BME280;12992;50.884;13.668;2023-02-23T14:23:32;96693.91;;;13.28;94.80
24962;BME280;12992;50.884;13.668;2023-02-23T14:26:11;96682.47;;;13.16;95.54
24962;BME280;12992;50.884;13.668;2023-02-23T14:28:39;96688.47;;;13.23;95.90
24962;BME280;12992;50.884;13.668;2023-02-23T14:41:23;96686.78;;;12.93;98.06
24962;BME280;12992;50.884;13.668;2023-02-23T14:43:54;96690.88;;;12.95;98.81
24962;BME280;12992;50.884;13.668;2023-02-23T14:46:23;96663.75;;;12.70;99.96